Time;durP1;ratioP1;P1;durP2;ratioP2;P2;SDS_P1;SDS_P2;PMS_P1;PMS_P2;Temp;Humidity;BMP_temperature;BMP_pressure;BME280_temperature;BME280_humidity;BME280_pressure;Samples;Min_cycle;Max_cycle;Signal;HPM_P1;HPM_P2
2022/09/13 00:01:07;;;;;;;1.77;1.10;;;20.60;99.90;;;;;;5071163;28;20667;-69
2022/09/13 00:03:35;;;;;;;6.53;1.60;;;20.10;99.90;;;;;;5070971;28;20187;-68
2022/09/13 00:06:13;;;;;;;2.77;1.20;;;20.40;99.90;;;;;;5074049;28;20183;-68
2022/09/13 00:08:42;;;;;;;4.03;1.70;;;21.60;99.90;;;;;;5075084;28;20215;-68
2022/09/13 00:11:22;;;;;;;3.53;1.70;;;22.20;99.90;;;;;;5073862;28;20255;-69
2022/09/13 00:13:50;;;;;;;6.17;1.50;;;20.80;99.90;;;;;;5058946;28;20248;-69
2022/09/13 00:16:21;;;;;;;5.30;1.67;;;20.30;99.90;;;;;;5056591;28;20178;-68
2022/09/13 00:18:49;;;;;;;4.10;1.63;;;19.60;99.90;;;;;;5055302;28;20214;-69
2022/09/13 00:21:19;;;;;;;5.93;1.73;;;19.40;99.90;;;;;;5065612;28;20183;-67
2022/09/13 00:23:53;;;;;;;5.20;1.40;;;19.60;99.90;;;;;;5073980;28;20245;-68
2022/09/13 00:26:27;;;;;;;6.03;1.73;;;19.10;99.90;;;;;;5073245;28;20671;-68
2022/09/13 00:28:59;;;;;;;5.33;1.80;;;18.70;99.90;;;;;;5073567;28;20679;-69
2022/09/13 00:31:28;;;;;;;6.43;1.60;;;18.40;99.90;;;;;;5073282;28;20639;-69
2022/09/13 00:33:58;;;;;;;4.60;1.80;;;17.90;99.90;;;;;;5073680;28;20188;-66
2022/09/13 00:36:25;;;;;;;5.63;1.40;;;17.80;99.90;;;;;;5072963;28;20176;-68
2022/09/13 00:38:55;;;;;;;6.20;1.57;;;18.00;99.90;;;;;;5073415;28;20180;-67
2022/09/13 00:41:24;;;;;;;5.07;1.80;;;17.40;99.90;;;;;;5073208;28;20690;-68
2022/09/13 00:44:01;;;;;;;3.27;1.80;;;17.30;99.90;;;;;;5071706;28;20188;-68
2022/09/13 00:46:48;;;;;;;3.77;1.57;;;17.70;99.90;;;;;;5072653;28;20266;-69
2022/09/13 00:49:27;;;;;;;3.37;1.60;;;18.00;99.90;;;;;;5063674;28;20194;-69
2022/09/13 00:52:03;;;;;;;3.77;1.67;;;18.30;99.90;;;;;;5073326;28;20179;-69
2022/09/13 00:54:38;;;;;;;6.83;1.87;;;18.50;99.90;;;;;;5070493;28;20183;-68
2022/09/13 00:57:08;;;;;;;8.70;1.80;;;18.70;99.90;;;;;;5068695;28;20251;-70
2022/09/13 00:59:42;;;;;;;5.90;1.60;;;18.70;99.90;;;;;;5072504;28;20180;-69
2022/09/13 01:02:11;;;;;;;8.43;2.30;;;18.50;99.90;;;;;;5071344;28;20172;-68
2022/09/13 01:04:39;;;;;;;4.93;2.00;;;18.50;99.90;;;;;;5072620;28;20175;-69
2022/09/13 01:07:10;;;;;;;5.17;1.60;;;18.40;99.90;;;;;;5072740;28;20199;-69
2022/09/13 01:09:43;;;;;;;3.80;1.73;;;18.20;99.90;;;;;;5070964;28;20218;-68
2022/09/13 01:12:17;;;;;;;6.23;1.70;;;18.20;99.90;;;;;;5069134;28;20693;-71
2022/09/13 01:14:47;;;;;;;8.03;2.00;;;18.20;99.90;;;;;;5072047;28;20187;-70
2022/09/13 01:17:14;;;;;;;4.40;1.20;;;18.40;99.90;;;;;;5071717;28;20295;-70
2022/09/13 01:19:42;;;;;;;3.83;1.60;;;18.60;99.90;;;;;;5072680;28;20217;-70
2022/09/13 01:22:38;;;;;;;3.90;1.70;;;19.10;99.90;;;;;;5073258;28;20249;-71
2022/09/13 01:25:33;;;;;;;4.63;1.70;;;20.70;99.90;;;;;;4928894;28;4141369;-70
2022/09/13 01:28:24;;;;;;;3.50;2.17;;;21.70;99.90;;;;;;5063344;28;20564;-69
2022/09/13 01:31:24;;;;;;;2.90;1.30;;;22.00;99.90;;;;;;5072258;28;20179;-69
2022/09/13 01:33:54;;;;;;;2.57;1.30;;;22.00;99.90;;;;;;5073636;28;20270;-70
2022/09/13 01:36:38;;;;;;;2.77;1.10;;;22.70;99.90;;;;;;5073813;28;20269;-71
2022/09/13 01:39:23;;;;;;;4.80;1.43;;;23.40;99.90;;;;;;5073571;28;20187;-69
2022/09/13 01:42:09;;;;;;;4.10;1.50;;;23.10;99.90;;;;;;5073488;28;20210;-69
2022/09/13 01:44:40;;;;;;;6.87;1.17;;;22.40;99.90;;;;;;5072411;28;20522;-70
2022/09/13 01:47:30;;;;;;;3.33;1.20;;;22.60;99.90;;;;;;5073395;28;20199;-71
2022/09/13 01:50:14;;;;;;;6.70;1.70;;;23.00;99.90;;;;;;5073722;28;20874;-69
2022/09/13 01:53:00;;;;;;;4.20;1.30;;;23.10;99.90;;;;;;5073420;28;20199;-68
2022/09/13 01:55:48;;;;;;;3.80;1.40;;;23.00;99.90;;;;;;5073604;28;20271;-71
2022/09/13 01:58:39;;;;;;;5.70;1.47;;;22.20;99.90;;;;;;5073602;28;20183;-69
2022/09/13 02:01:27;;;;;;;5.97;1.43;;;21.40;99.90;;;;;;5073399;28;20179;-71
2022/09/13 02:04:12;;;;;;;6.17;1.70;;;20.80;99.90;;;;;;5072854;28;20188;-71
2022/09/13 02:06:48;;;;;;;2.03;1.03;;;20.80;99.90;;;;;;5072982;28;20171;-71
2022/09/13 02:09:20;;;;;;;5.47;1.20;;;20.50;99.90;;;;;;5073206;28;20195;-69
2022/09/13 02:11:54;;;;;;;5.67;1.50;;;21.00;99.90;;;;;;5072919;28;20262;-71
2022/09/13 02:14:30;;;;;;;5.13;1.27;;;21.70;99.90;;;;;;5073156;28;20171;-69
2022/09/13 02:17:06;;;;;;;3.17;1.50;;;21.70;99.90;;;;;;5071918;28;20183;-69
2022/09/13 02:19:36;;;;;;;5.30;1.40;;;22.30;99.90;;;;;;5056583;28;20516;-70
2022/09/13 02:22:08;;;;;;;2.10;1.03;;;22.40;99.90;;;;;;5072617;28;20721;-69
2022/09/13 02:24:42;;;;;;;2.87;1.40;;;22.00;99.90;;;;;;5072859;28;20289;-69
2022/09/13 02:27:18;;;;;;;2.83;1.27;;;22.30;99.90;;;;;;5071985;28;20212;-70
2022/09/13 02:29:50;;;;;;;5.83;1.70;;;22.50;99.90;;;;;;5072512;28;20190;-69
2022/09/13 02:32:28;;;;;;;2.97;1.33;;;22.80;99.90;;;;;;5072833;28;20171;-71
2022/09/13 02:35:05;;;;;;;3.97;1.07;;;23.20;99.90;;;;;;5072883;28;20185;-70
2022/09/13 02:37:36;;;;;;;3.93;1.30;;;23.30;94.60;;;;;;5071963;28;20600;-69
2022/09/13 02:40:13;;;;;;;3.90;1.17;;;22.50;94.10;;;;;;5072319;28;20188;-70
2022/09/13 02:43:00;;;;;;;3.87;1.37;;;21.00;99.90;;;;;;5072593;28;20172;-69
2022/09/13 02:45:54;;;;;;;1.97;1.20;;;21.10;99.90;;;;;;5072465;28;20233;-71
2022/09/13 02:48:35;;;;;;;2.30;1.03;;;21.90;99.90;;;;;;5064320;28;20261;-72
2022/09/13 02:51:35;;;;;;;2.87;0.90;;;22.40;99.50;;;;;;5072173;28;20211;-72
2022/09/13 02:54:32;;;;;;;4.73;1.60;;;22.20;93.60;;;;;;5072076;28;20692;-69
2022/09/13 02:57:12;;;;;;;5.47;1.03;;;21.90;93.50;;;;;;5059119;28;20195;-70
2022/09/13 02:59:40;;;;;;;2.03;1.00;;;22.10;97.20;;;;;;5071935;28;20313;-73
2022/09/13 03:02:15;;;;;;;4.47;1.30;;;22.20;97.80;;;;;;5072931;28;20666;-70
2022/09/13 03:04:43;;;;;;;3.80;1.10;;;22.10;93.30;;;;;;5072241;28;20175;-71
2022/09/13 03:07:14;;;;;;;2.20;1.03;;;22.70;94.20;;;;;;5072235;28;20196;-68
2022/09/13 03:09:49;;;;;;;2.63;1.00;;;23.20;93.50;;;;;;5071647;28;20195;-70
2022/09/13 03:12:37;;;;;;;2.60;1.20;;;23.60;86.00;;;;;;5072017;28;20264;-68
2022/09/13 03:15:16;;;;;;;1.37;1.00;;;23.40;80.00;;;;;;5071801;28;20186;-72
2022/09/13 03:17:47;;;;;;;4.43;1.83;;;22.40;66.00;;;;;;5071925;28;20176;-69
2022/09/13 03:20:39;;;;;;;4.13;0.97;;;21.00;74.90;;;;;;5072008;28;20244;-70
2022/09/13 03:23:34;;;;;;;4.47;1.20;;;20.20;88.50;;;;;;5071548;28;20648;-69
2022/09/13 03:26:13;;;;;;;2.40;1.20;;;19.70;96.70;;;;;;5071363;28;20185;-69
2022/09/13 03:28:44;;;;;;;6.37;0.97;;;20.00;99.90;;;;;;5071799;28;20698;-69
2022/09/13 03:31:27;;;;;;;4.40;1.20;;;20.40;99.90;;;;;;5071136;28;20691;-68
2022/09/13 03:34:04;;;;;;;9.97;1.57;;;21.10;98.40;;;;;;5071355;28;20191;-68
2022/09/13 03:36:51;;;;;;;2.43;1.23;;;21.50;97.80;;;;;;5071506;28;20184;-69
2022/09/13 03:39:23;;;;;;;4.77;1.20;;;21.90;95.90;;;;;;5071211;28;20183;-69
2022/09/13 03:41:56;;;;;;;7.53;1.23;;;21.80;93.10;;;;;;5072040;28;20164;-69
2022/09/13 03:44:25;;;;;;;3.03;1.33;;;21.60;91.00;;;;;;5071309;28;20266;-70
2022/09/13 03:46:57;;;;;;;2.37;1.33;;;21.70;94.20;;;;;;5071791;28;20657;-68
2022/09/13 03:49:27;;;;;;;3.37;1.20;;;21.90;90.00;;;;;;5071239;28;20192;-69
2022/09/13 03:51:56;;;;;;;4.90;1.40;;;21.70;88.40;;;;;;5071587;28;20184;-68
2022/09/13 03:54:31;;;;;;;5.00;1.53;;;21.90;90.40;;;;;;5070851;28;20661;-68
2022/09/13 03:57:19;;;;;;;4.07;1.60;;;21.90;83.60;;;;;;5071557;28;20198;-68
2022/09/13 03:59:52;;;;;;;6.80;1.30;;;21.70;90.80;;;;;;5068709;28;20568;-71
2022/09/13 04:02:22;;;;;;;3.93;1.40;;;21.80;98.80;;;;;;5071116;28;20183;-69
2022/09/13 04:04:50;;;;;;;3.80;1.17;;;21.80;98.10;;;;;;5071611;28;20652;-69
2022/09/13 04:07:24;;;;;;;3.10;1.20;;;22.10;97.00;;;;;;5071409;28;20290;-69
2022/09/13 04:09:52;;;;;;;3.97;1.30;;;21.50;97.10;;;;;;5051582;28;20188;-68
2022/09/13 04:12:20;;;;;;;5.37;1.10;;;20.70;98.20;;;;;;5065276;28;20546;-69
2022/09/13 04:14:48;;;;;;;3.90;1.27;;;20.40;99.90;;;;;;5071589;28;20236;-69
2022/09/13 04:17:16;;;;;;;7.23;1.20;;;20.10;99.90;;;;;;5071401;28;20564;-69
2022/09/13 04:19:45;;;;;;;3.27;1.40;;;20.30;99.90;;;;;;5070074;28;20687;-71
2022/09/13 04:22:14;;;;;;;4.90;1.37;;;20.50;99.90;;;;;;5071249;28;20184;-71
2022/09/13 04:24:42;;;;;;;2.80;1.23;;;20.70;99.90;;;;;;5070881;28;20282;-72
2022/09/13 04:27:11;;;;;;;6.20;1.17;;;20.60;99.90;;;;;;5071231;28;20221;-71
2022/09/13 04:29:38;;;;;;;3.90;1.27;;;20.90;99.90;;;;;;5071084;28;20749;-72
2022/09/13 04:32:08;;;;;;;3.70;1.07;;;21.00;99.90;;;;;;5071012;28;20183;-71
2022/09/13 04:34:36;;;;;;;2.70;1.30;;;21.00;97.00;;;;;;5071185;28;20262;-68
2022/09/13 04:37:03;;;;;;;5.23;2.20;;;21.10;95.60;;;;;;5071304;28;20184;-67
2022/09/13 04:39:31;;;;;;;1.50;0.80;;;21.10;97.30;;;;;;5067295;28;20185;-71
2022/09/13 04:42:01;;;;;;;6.67;1.30;;;21.00;97.30;;;;;;5071221;28;20178;-69
2022/09/13 04:44:29;;;;;;;2.70;1.13;;;21.10;99.90;;;;;;5071935;28;20263;-71
2022/09/13 04:46:56;;;;;;;4.93;1.20;;;21.10;97.40;;;;;;5071026;28;20183;-71
2022/09/13 04:49:24;;;;;;;2.03;0.90;;;20.80;95.80;;;;;;5070664;28;20192;-71
2022/09/13 04:51:57;;;;;;;3.43;1.20;;;20.80;99.60;;;;;;5074471;28;20176;-67
2022/09/13 04:54:46;;;;;;;2.60;1.03;;;20.90;95.60;;;;;;5076238;28;20185;-70
2022/09/13 04:57:17;;;;;;;2.73;0.90;;;20.70;95.50;;;;;;5055491;28;20188;-68
2022/09/13 04:59:46;;;;;;;4.37;1.27;;;20.60;96.30;;;;;;5055500;28;20196;-69
2022/09/13 05:02:14;;;;;;;3.07;1.37;;;20.20;99.90;;;;;;5065045;28;20184;-70
2022/09/13 05:04:46;;;;;;;3.37;1.10;;;20.00;96.50;;;;;;5083177;28;20270;-69
2022/09/13 05:07:13;;;;;;;2.87;1.10;;;19.80;99.90;;;;;;5091331;28;20210;-68
2022/09/13 05:09:41;;;;;;;4.23;1.37;;;19.60;99.90;;;;;;5091351;28;20186;-70
2022/09/13 05:12:10;;;;;;;3.77;1.20;;;19.50;99.90;;;;;;5080896;28;20176;-68
2022/09/13 05:14:38;;;;;;;2.47;1.20;;;19.40;99.90;;;;;;5076571;28;20184;-68
2022/09/13 05:17:06;;;;;;;4.17;0.90;;;19.30;99.90;;;;;;5072068;28;20207;-67
2022/09/13 05:19:34;;;;;;;1.30;0.80;;;19.30;99.90;;;;;;5072357;28;20196;-68
2022/09/13 05:22:02;;;;;;;4.57;1.40;;;19.00;99.90;;;;;;5072738;28;20555;-69
2022/09/13 05:24:30;;;;;;;3.10;1.20;;;18.90;99.90;;;;;;5073940;28;20226;-66
2022/09/13 05:26:58;;;;;;;4.07;1.50;;;19.10;99.90;;;;;;5073951;28;20184;-69
2022/09/13 05:29:26;;;;;;;4.63;1.10;;;18.80;99.90;;;;;;5074121;28;20195;-68
2022/09/13 05:31:54;;;;;;;3.03;1.07;;;18.70;99.90;;;;;;5068747;28;20188;-67
2022/09/13 05:34:21;;;;;;;3.57;1.13;;;18.60;99.90;;;;;;5053836;28;20200;-67
2022/09/13 05:36:49;;;;;;;4.57;1.37;;;18.60;99.90;;;;;;5056111;28;20172;-67
2022/09/13 05:39:17;;;;;;;3.03;1.27;;;18.50;99.90;;;;;;5073662;28;20646;-67
2022/09/13 05:41:46;;;;;;;4.57;1.60;;;17.90;99.90;;;;;;5073530;28;20184;-69
2022/09/13 05:44:13;;;;;;;4.60;1.40;;;17.60;99.90;;;;;;5073616;28;20215;-68
2022/09/13 05:46:43;;;;;;;7.73;1.60;;;17.40;99.90;;;;;;5073276;28;20199;-67
2022/09/13 05:49:12;;;;;;;4.63;1.60;;;17.20;99.90;;;;;;5073644;28;20195;-71
2022/09/13 05:51:40;;;;;;;4.83;1.37;;;17.20;99.90;;;;;;5073539;28;20186;-67
2022/09/13 05:54:11;;;;;;;2.60;1.50;;;;;;;;;;5073603;28;20176;-67
2022/09/13 05:56:42;;;;;;;7.00;1.40;;;17.10;99.90;;;;;;5072033;28;20271;-67
2022/09/13 05:59:16;;;;;;;2.57;0.90;;;17.50;99.90;;;;;;5073520;28;20221;-67
2022/09/13 06:02:01;;;;;;;5.63;1.57;;;17.70;99.90;;;;;;5069759;28;20187;-72
2022/09/13 06:04:29;;;;;;;3.37;1.20;;;17.90;99.90;;;;;;5071270;28;20229;-71
2022/09/13 06:06:57;;;;;;;4.73;1.30;;;18.10;99.90;;;;;;5073846;28;20210;-68
2022/09/13 06:09:24;;;;;;;2.63;1.10;;;18.20;99.90;;;;;;5073791;28;20172;-68
2022/09/13 06:11:52;;;;;;;6.57;1.30;;;18.10;99.90;;;;;;5073539;28;20199;-68
2022/09/13 06:14:22;;;;;;;1.83;1.20;;;18.10;99.90;;;;;;5073646;28;20175;-69
2022/09/13 06:16:49;;;;;;;3.57;1.30;;;17.90;99.90;;;;;;5072361;28;20184;-69
2022/09/13 06:19:19;;;;;;;5.07;1.60;;;17.70;99.90;;;;;;5073841;28;20176;-68
2022/09/13 06:21:50;;;;;;;7.37;1.50;;;17.60;99.90;;;;;;5073392;28;20225;-67
2022/09/13 06:24:18;;;;;;;3.90;1.30;;;17.60;99.90;;;;;;5073091;28;20246;-67
2022/09/13 06:26:49;;;;;;;2.23;1.10;;;17.50;99.90;;;;;;5073672;28;20184;-66
2022/09/13 06:29:18;;;;;;;5.07;1.50;;;17.40;99.90;;;;;;5093285;28;20190;-68
2022/09/13 06:31:46;;;;;;;5.40;1.30;;;17.50;99.90;;;;;;5090238;28;20190;-69
2022/09/13 06:34:15;;;;;;;8.43;1.43;;;17.30;99.90;;;;;;5084336;28;20216;-66
2022/09/13 06:36:51;;;;;;;5.60;1.53;;;17.30;99.90;;;;;;5073113;28;20187;-71
2022/09/13 06:39:20;;;;;;;5.30;1.47;;;17.10;99.90;;;;;;5071650;28;20645;-68
2022/09/13 06:41:54;;;;;;;6.80;1.47;;;17.10;99.90;;;;;;5072792;28;20207;-68
2022/09/13 06:44:24;;;;;;;4.40;1.37;;;17.20;99.90;;;;;;5071273;28;20183;-68
2022/09/13 06:46:52;;;;;;;8.00;1.80;;;17.20;99.90;;;;;;5071326;28;20184;-69
2022/09/13 06:49:20;;;;;;;5.57;1.20;;;17.10;99.90;;;;;;5063448;28;20552;-68
2022/09/13 06:51:47;;;;;;;3.87;1.30;;;17.20;99.90;;;;;;5052898;28;20175;-68
2022/09/13 06:54:15;;;;;;;7.43;1.50;;;16.90;99.90;;;;;;5053086;28;20187;-69
2022/09/13 06:56:43;;;;;;;4.47;1.27;;;16.70;99.90;;;;;;5072358;28;20207;-67
2022/09/13 06:59:12;;;;;;;6.67;1.67;;;16.50;99.90;;;;;;5072870;28;20172;-69
2022/09/13 07:01:44;;;;;;;7.37;1.47;;;16.20;99.90;;;;;;5072310;28;20659;-70
2022/09/13 07:04:16;;;;;;;3.77;1.10;;;16.00;99.90;;;;;;5066521;28;20219;-69
2022/09/13 07:06:46;;;;;;;5.47;1.07;;;15.90;99.90;;;;;;5066043;28;20184;-65
2022/09/13 07:09:20;;;;;;;5.80;1.37;;;15.80;99.90;;;;;;5071638;28;20191;-67
2022/09/13 07:11:54;;;;;;;4.23;1.33;;;15.70;99.90;;;;;;5072626;28;20223;-71
2022/09/13 07:14:28;;;;;;;8.60;1.53;;;15.50;99.90;;;;;;5059876;28;20194;-67
2022/09/13 07:16:56;;;;;;;3.47;1.20;;;15.40;99.90;;;;;;5061142;28;20279;-70
2022/09/13 07:19:29;;;;;;;6.97;1.87;;;15.40;99.90;;;;;;5062524;28;20211;-70
2022/09/13 07:21:57;;;;;;;4.23;1.10;;;15.20;99.90;;;;;;5062654;28;20211;-71
2022/09/13 07:24:26;;;;;;;3.37;1.30;;;15.10;99.90;;;;;;5059256;28;20292;-70
2022/09/13 07:26:53;;;;;;;4.40;1.10;;;15.10;99.90;;;;;;5071845;28;20696;-69
2022/09/13 07:29:23;;;;;;;12.27;1.80;;;15.20;99.90;;;;;;5071924;28;20598;-67
2022/09/13 07:31:53;;;;;;;3.87;1.23;;;15.10;99.90;;;;;;5070873;28;20275;-68
2022/09/13 07:34:24;;;;;;;11.00;2.20;;;15.00;99.90;;;;;;5071921;28;20216;-69
2022/09/13 07:36:52;;;;;;;7.00;1.57;;;15.10;99.90;;;;;;5070548;28;20657;-68
2022/09/13 07:39:20;;;;;;;6.13;1.70;;;15.10;99.90;;;;;;5071703;28;20198;-68
2022/09/13 07:41:48;;;;;;;5.30;1.50;;;15.00;99.90;;;;;;5071536;28;20718;-68
2022/09/13 07:44:16;;;;;;;5.97;1.57;;;14.90;99.90;;;;;;5072253;28;20660;-69
2022/09/13 07:46:44;;;;;;;4.60;1.60;;;14.90;99.90;;;;;;5072189;28;20240;-67
2022/09/13 07:49:14;;;;;;;5.07;1.40;;;14.80;99.90;;;;;;5071980;28;20194;-70
2022/09/13 07:51:44;;;;;;;4.77;1.33;;;14.80;99.90;;;;;;5071228;28;20176;-70
2022/09/13 07:54:14;;;;;;;6.80;1.30;;;14.70;99.90;;;;;;5071725;28;20575;-68
2022/09/13 07:56:42;;;;;;;7.40;1.37;;;14.60;99.90;;;;;;5071726;28;20667;-68
2022/09/13 07:59:16;;;;;;;1.77;1.20;;;14.60;99.90;;;;;;5071661;28;20180;-68
2022/09/13 08:01:50;;;;;;;4.40;1.30;;;14.60;99.90;;;;;;5063726;28;20215;-67
2022/09/13 08:04:20;;;;;;;4.20;1.37;;;14.50;99.90;;;;;;5058087;28;20521;-68
2022/09/13 08:06:48;;;;;;;7.10;1.57;;;14.50;99.90;;;;;;5069241;28;20219;-67
2022/09/13 08:09:18;;;;;;;8.80;2.10;;;14.40;99.90;;;;;;5070850;28;20688;-68
2022/09/13 08:11:57;;;;;;;6.93;1.60;;;14.30;99.90;;;;;;5072214;28;20597;-68
2022/09/13 08:14:27;;;;;;;7.30;1.80;;;14.20;99.90;;;;;;5072232;28;20682;-68
2022/09/13 08:16:56;;;;;;;5.17;1.77;;;14.20;99.90;;;;;;5071648;28;20652;-67
2022/09/13 08:19:24;;;;;;;6.00;1.30;;;14.20;99.90;;;;;;5071483;28;20193;-70
2022/09/13 08:21:55;;;;;;;6.53;1.80;;;14.30;99.90;;;;;;5071323;28;20183;-68
2022/09/13 08:24:23;;;;;;;7.33;1.70;;;14.30;99.90;;;;;;5071488;28;20224;-68
2022/09/13 08:26:55;;;;;;;7.80;1.63;;;14.20;99.90;;;;;;5073995;28;20176;-68
2022/09/13 08:29:24;;;;;;;10.20;2.13;;;14.20;99.90;;;;;;5074988;28;20555;-68
2022/09/13 08:31:51;;;;;;;7.37;1.63;;;14.30;99.90;;;;;;5074977;28;20180;-69
2022/09/13 08:34:20;;;;;;;3.03;1.57;;;14.30;99.90;;;;;;5061253;28;20508;-67
2022/09/13 08:36:48;;;;;;;2.77;1.10;;;14.20;99.90;;;;;;5069025;28;20200;-69
2022/09/13 08:39:16;;;;;;;4.70;1.40;;;14.30;99.90;;;;;;5063895;28;20202;-67
2022/09/13 08:41:51;;;;;;;4.40;1.33;;;14.40;99.90;;;;;;5064584;28;20197;-68
2022/09/13 08:44:25;;;;;;;3.30;1.50;;;14.30;99.90;;;;;;5063562;28;20182;-69
2022/09/13 08:47:31;;;;;;;4.43;1.60;;;14.30;99.90;;;;;;5060975;28;20285;-67
2022/09/13 08:50:25;;;;;;;4.70;1.40;;;14.30;99.90;;;;;;5065843;28;20241;-68
2022/09/13 08:53:40;;;;;;;4.23;1.50;;;14.20;99.90;;;;;;5056546;28;20223;-69
2022/09/13 08:56:20;;;;;;;2.90;1.83;;;14.20;99.90;;;;;;5002338;28;20195;-68
2022/09/13 08:58:51;;;;;;;6.63;1.97;;;14.10;99.90;;;;;;5066011;28;20254;-67
2022/09/13 09:01:41;;;;;;;4.23;1.30;;;14.20;99.90;;;;;;5065259;28;20172;-68
2022/09/13 09:04:28;;;;;;;5.80;1.47;;;14.20;99.90;;;;;;5064730;28;20225;-68
2022/09/13 09:07:07;;;;;;;11.20;1.70;;;14.20;99.90;;;;;;5054955;28;20186;-68
2022/09/13 09:10:02;;;;;;;3.33;1.50;;;14.30;99.90;;;;;;5056884;28;20204;-68
2022/09/13 09:13:07;;;;;;;6.90;1.73;;;14.20;99.90;;;;;;5070977;28;20184;-67
2022/09/13 09:15:49;;;;;;;5.37;1.47;;;14.20;99.90;;;;;;5056612;28;20172;-67
2022/09/13 09:18:38;;;;;;;5.10;1.50;;;14.30;99.90;;;;;;5053280;28;20191;-68
2022/09/13 09:21:13;;;;;;;4.10;1.50;;;14.10;99.90;;;;;;5076386;28;20237;-68
2022/09/13 09:23:58;;;;;;;3.93;1.17;;;14.20;99.90;;;;;;5076188;28;20219;-69
2022/09/13 09:26:29;;;;;;;5.17;2.80;;;14.20;99.90;;;;;;5077881;28;20656;-69
2022/09/13 09:29:04;;;;;;;5.17;2.00;;;14.10;99.90;;;;;;5080428;28;20242;-69
2022/09/13 09:32:25;;;;;;;3.27;1.60;;;14.10;99.90;;;;;;5093012;28;20187;-67
2022/09/13 09:35:30;;;;;;;7.57;1.77;;;14.10;99.90;;;;;;5089623;28;20202;-67
2022/09/13 09:38:16;;;;;;;5.63;1.73;;;14.10;99.90;;;;;;5071990;28;20193;-68
2022/09/13 09:40:47;;;;;;;7.07;1.83;;;14.10;99.90;;;;;;5074092;28;20678;-68
2022/09/13 09:43:32;;;;;;;5.10;2.00;;;14.10;99.90;;;;;;5075675;28;20633;-70
2022/09/13 09:46:03;;;;;;;4.47;1.67;;;14.10;99.90;;;;;;5075097;28;20198;-69
2022/09/13 09:48:39;;;;;;;3.53;1.50;;;14.00;99.90;;;;;;5075521;28;20262;-68
2022/09/13 09:51:11;;;;;;;6.73;1.77;;;14.00;99.90;;;;;;5075343;28;20185;-69
2022/09/13 09:53:49;;;;;;;6.13;2.30;;;13.90;99.90;;;;;;5074829;28;20179;-67
2022/09/13 09:56:23;;;;;;;6.33;1.90;;;13.90;99.90;;;;;;5073786;28;20184;-68
2022/09/13 09:58:56;;;;;;;8.67;2.30;;;13.90;99.90;;;;;;5056587;28;20179;-67
2022/09/13 10:01:26;;;;;;;3.93;2.40;;;13.90;99.90;;;;;;5074616;28;20190;-67
2022/09/13 10:04:17;;;;;;;6.20;2.40;;;13.90;99.90;;;;;;5075165;28;20235;-70
2022/09/13 10:06:46;;;;;;;3.17;1.90;;;13.90;99.90;;;;;;5074748;28;20198;-67
2022/09/13 10:09:19;;;;;;;5.93;2.10;;;14.00;99.90;;;;;;5069392;28;20219;-68
2022/09/13 10:11:59;;;;;;;8.57;1.90;;;13.90;99.90;;;;;;5065630;28;20195;-69
2022/09/13 10:14:37;;;;;;;6.03;1.93;;;14.00;99.90;;;;;;5062489;28;20218;-68
2022/09/13 10:17:16;;;;;;;6.33;1.90;;;14.10;99.90;;;;;;5063201;28;20211;-69
2022/09/13 10:20:00;;;;;;;5.60;2.20;;;14.10;99.90;;;;;;5063704;28;20648;-67
2022/09/13 10:22:32;;;;;;;6.77;1.97;;;14.00;99.90;;;;;;5063849;28;20188;-69
2022/09/13 10:25:25;;;;;;;6.20;1.70;;;14.00;99.90;;;;;;5063573;28;20226;-67
2022/09/13 10:27:59;;;;;;;6.23;1.77;;;14.10;99.90;;;;;;5058212;28;20203;-66
2022/09/13 10:30:46;;;;;;;9.70;2.50;;;14.00;99.90;;;;;;5074526;28;20297;-67
2022/09/13 10:33:39;;;;;;;8.57;2.77;;;14.00;99.90;;;;;;5074664;28;20536;-70
2022/09/13 10:36:26;;;;;;;6.30;2.37;;;14.00;99.90;;;;;;5067592;28;20603;-70
2022/09/13 10:39:05;;;;;;;3.83;2.07;;;14.00;99.90;;;;;;5074640;28;20183;-69
2022/09/13 10:41:41;;;;;;;9.60;1.67;;;14.00;99.90;;;;;;5074035;28;20206;-69
2022/09/13 10:44:29;;;;;;;5.30;1.87;;;13.90;99.90;;;;;;5053415;28;20183;-70
2022/09/13 10:46:58;;;;;;;6.57;1.90;;;13.90;99.90;;;;;;5044751;28;20196;-66
2022/09/13 10:49:53;;;;;;;9.10;2.40;;;13.90;99.90;;;;;;5053607;28;20175;-69
2022/09/13 10:52:45;;;;;;;9.70;1.93;;;13.90;99.90;;;;;;5053685;28;20189;-70
2022/09/13 10:55:35;;;;;;;8.80;2.07;;;13.90;99.90;;;;;;5074325;28;20233;-70
2022/09/13 10:58:02;;;;;;;5.93;1.60;;;13.80;99.90;;;;;;5073877;28;20223;-67
2022/09/13 11:00:55;;;;;;;8.33;2.10;;;13.80;99.90;;;;;;5074994;28;20635;-68
2022/09/13 11:04:11;;;;;;;9.37;1.97;;;13.80;99.90;;;;;;5073441;28;20206;-67
2022/09/13 11:07:20;;;;;;;4.93;1.70;;;13.60;99.90;;;;;;5074166;28;20254;-70
2022/09/13 11:10:08;;;;;;;7.90;2.10;;;13.60;99.90;;;;;;5073943;28;20273;-70
2022/09/13 11:12:56;;;;;;;8.80;1.77;;;13.50;99.90;;;;;;5073641;28;20670;-70
2022/09/13 11:15:54;;;;;;;5.37;1.60;;;13.50;99.90;;;;;;5073817;28;20292;-68
2022/09/13 11:18:51;;;;;;;9.70;1.90;;;13.40;99.90;;;;;;5073636;28;20181;-69
2022/09/13 11:21:39;;;;;;;9.67;2.10;;;13.30;99.90;;;;;;5073919;28;20230;-69
2022/09/13 11:24:32;;;;;;;7.80;2.10;;;13.30;99.90;;;;;;5073327;28;20238;-67
2022/09/13 11:27:17;;;;;;;3.40;1.97;;;13.20;99.90;;;;;;5073538;28;20182;-68
2022/09/13 11:29:59;;;;;;;7.40;2.50;;;13.20;99.90;;;;;;5073302;28;20195;-70
2022/09/13 11:32:42;;;;;;;4.50;1.77;;;13.10;99.90;;;;;;5072767;28;20220;-68
2022/09/13 11:35:31;;;;;;;6.50;1.67;;;13.10;99.90;;;;;;5073880;28;20268;-69
2022/09/13 11:38:02;;;;;;;3.83;1.77;;;13.00;99.90;;;;;;5073221;28;20183;-67
2022/09/13 11:40:53;;;;;;;4.03;2.10;;;13.00;99.90;;;;;;5073293;28;20666;-66
2022/09/13 11:43:46;;;;;;;6.43;1.60;;;12.90;99.90;;;;;;5064501;28;20667;-69
2022/09/13 11:46:38;;;;;;;7.63;1.90;;;12.80;99.90;;;;;;5063018;28;20273;-68
2022/09/13 11:49:15;;;;;;;6.70;1.73;;;12.80;99.90;;;;;;5060968;28;20255;-66
2022/09/13 11:52:00;;;;;;;5.27;1.70;;;12.70;99.90;;;;;;5059432;28;20175;-68
2022/09/13 11:54:49;;;;;;;5.77;1.77;;;12.50;99.90;;;;;;5053535;28;20187;-68
2022/09/13 11:57:30;;;;;;;7.70;2.30;;;12.60;99.90;;;;;;5067966;28;20279;-69
2022/09/13 12:00:14;;;;;;;3.10;2.10;;;12.60;99.90;;;;;;5074371;28;20178;-68
2022/09/13 12:03:24;;;;;;;6.10;2.27;;;12.60;99.90;;;;;;5077235;28;20172;-69
2022/09/13 12:06:00;;;;;;;8.30;2.83;;;12.50;99.90;;;;;;5076673;28;20190;-68
2022/09/13 12:08:49;;;;;;;7.37;2.17;;;12.40;99.90;;;;;;5076783;28;20699;-67
2022/09/13 12:11:35;;;;;;;7.13;2.23;;;12.30;99.90;;;;;;5076862;28;20526;-67
2022/09/13 12:14:11;;;;;;;12.27;2.30;;;12.30;99.90;;;;;;5077623;28;20185;-68
2022/09/13 12:16:45;;;;;;;5.63;2.00;;;12.20;99.90;;;;;;5076932;28;20193;-69
2022/09/13 12:19:46;;;;;;;5.60;1.70;;;12.20;99.90;;;;;;5076861;28;20261;-68
2022/09/13 12:22:15;;;;;;;6.97;2.10;;;12.20;99.90;;;;;;5072524;28;20548;-69
2022/09/13 12:25:02;;;;;;;5.67;2.10;;;12.10;99.90;;;;;;5076535;28;20227;-67
2022/09/13 12:27:38;;;;;;;10.63;2.00;;;12.10;99.90;;;;;;5076610;28;20198;-68
2022/09/13 12:30:22;;;;;;;6.30;2.20;;;12.10;99.90;;;;;;5076513;28;20193;-67
2022/09/13 12:32:51;;;;;;;7.57;2.00;;;12.10;99.90;;;;;;5076429;28;20196;-67
2022/09/13 12:35:36;;;;;;;6.77;2.10;;;12.10;99.90;;;;;;5076654;28;20185;-67
2022/09/13 12:38:31;;;;;;;8.50;2.30;;;12.20;99.90;;;;;;5076425;28;20646;-69
2022/09/13 12:41:19;;;;;;;6.77;2.27;;;12.20;99.90;;;;;;5076413;28;20185;-67
2022/09/13 12:44:00;;;;;;;3.87;1.63;;;12.20;99.90;;;;;;5075696;28;20190;-67
2022/09/13 12:46:37;;;;;;;4.77;1.80;;;12.30;99.90;;;;;;5076711;28;20265;-68
2022/09/13 12:49:25;;;;;;;5.23;1.77;;;12.30;99.90;;;;;;5076048;28;20217;-69
2022/09/13 12:52:30;;;;;;;3.63;1.57;;;12.30;99.90;;;;;;5076312;28;20172;-67
2022/09/13 12:55:34;;;;;;;5.10;1.90;;;12.30;99.90;;;;;;5075902;28;20226;-70
2022/09/13 12:58:30;;;;;;;4.93;1.87;;;12.40;99.90;;;;;;5076508;28;20219;-66
2022/09/13 13:01:08;;;;;;;6.67;2.07;;;12.30;99.90;;;;;;5076101;28;20261;-67
2022/09/13 13:04:02;;;;;;;6.47;1.80;;;12.30;99.90;;;;;;5076134;28;20178;-70
2022/09/13 13:06:39;;;;;;;3.97;1.50;;;12.20;99.90;;;;;;5075972;28;20178;-68
2022/09/13 13:09:30;;;;;;;4.73;1.50;;;12.20;99.90;;;;;;5075547;28;20582;-67
2022/09/13 13:11:58;;;;;;;6.73;1.70;;;12.20;99.90;;;;;;5075684;28;20261;-69
2022/09/13 13:14:41;;;;;;;3.50;1.60;;;12.20;99.90;;;;;;5075895;28;20177;-67
2022/09/13 13:17:35;;;;;;;2.57;1.60;;;12.30;99.90;;;;;;5075752;28;20227;-67
2022/09/13 13:20:42;;;;;;;2.73;1.53;;;12.30;99.90;;;;;;5075490;28;20228;-68
2022/09/13 13:23:30;;;;;;;4.40;1.73;;;12.30;99.90;;;;;;5075075;28;20268;-69
2022/09/13 13:26:07;;;;;;;7.70;1.73;;;12.20;99.90;;;;;;5054289;28;20638;-67
2022/09/13 13:28:46;;;;;;;4.37;1.70;;;12.20;99.90;;;;;;5060897;28;20213;-68
2022/09/13 13:31:30;;;;;;;4.47;1.50;;;12.20;99.90;;;;;;5074984;28;20192;-68
2022/09/13 13:34:01;;;;;;;7.77;1.70;;;12.20;99.90;;;;;;5075893;28;20630;-67
2022/09/13 13:36:42;;;;;;;6.90;2.10;;;12.20;99.90;;;;;;5075498;28;20180;-67
2022/09/13 13:39:25;;;;;;;6.17;2.33;;;12.20;99.90;;;;;;5075409;28;20195;-68